sensor_id;sensor_type;location;lat;lon;timestamp;temperature;humidity
9699;DHT22;10089;47.876;8.346;2023-08-21T00:01:20;21.60;99.90
9699;DHT22;10089;47.876;8.346;2023-08-21T00:03:46;21.60;99.90
9699;DHT22;10089;47.876;8.346;2023-08-21T00:06:12;21.60;99.90
9699;DHT22;10089;47.876;8.346;2023-08-21T00:08:37;21.60;99.90
9699;DHT22;10089;47.876;8.346;2023-08-21T00:11:03;21.60;99.90
9699;DHT22;10089;47.876;8.346;2023-08-21T00:13:29;21.60;99.90
9699;DHT22;10089;47.876;8.346;2023-08-21T00:15:54;21.60;96.50
9699;DHT22;10089;47.876;8.346;2023-08-21T00:18:21;21.60;97.30
9699;DHT22;10089;47.876;8.346;2023-08-21T00:20:47;21.50;99.90
9699;DHT22;10089;47.876;8.346;2023-08-21T00:23:12;21.40;99.90
9699;DHT22;10089;47.876;8.346;2023-08-21T00:25:38;21.40;99.90
9699;DHT22;10089;47.876;8.346;2023-08-21T00:28:04;21.40;99.90
9699;DHT22;10089;47.876;8.346;2023-08-21T00:30:29;21.40;99.90
9699;DHT22;10089;47.876;8.346;2023-08-21T00:32:55;21.40;99.90
9699;DHT22;10089;47.876;8.346;2023-08-21T00:35:21;21.40;99.90
9699;DHT22;10089;47.876;8.346;2023-08-21T00:37:46;21.30;99.90
9699;DHT22;10089;47.876;8.346;2023-08-21T00:40:12;21.30;99.90
9699;DHT22;10089;47.876;8.346;2023-08-21T00:42:38;21.20;99.90
9699;DHT22;10089;47.876;8.346;2023-08-21T00:45:04;21.20;99.90
9699;DHT22;10089;47.876;8.346;2023-08-21T00:47:30;21.30;99.90
9699;DHT22;10089;47.876;8.346;2023-08-21T00:49:56;21.20;99.90
9699;DHT22;10089;47.876;8.346;2023-08-21T00:52:22;21.20;99.90
9699;DHT22;10089;47.876;8.346;2023-08-21T00:54:48;21.20;99.90
9699;DHT22;10089;47.876;8.346;2023-08-21T00:57:15;21.30;99.90
9699;DHT22;10089;47.876;8.346;2023-08-21T00:59:41;21.20;99.90
9699;DHT22;10089;47.876;8.346;2023-08-21T01:02:06;21.20;99.90
9699;DHT22;10089;47.876;8.346;2023-08-21T01:04:32;21.10;99.90
9699;DHT22;10089;47.876;8.346;2023-08-21T01:06:58;21.10;99.90
9699;DHT22;10089;47.876;8.346;2023-08-21T01:09:36;21.10;99.90
9699;DHT22;10089;47.876;8.346;2023-08-21T01:12:29;21.00;99.90
9699;DHT22;10089;47.876;8.346;2023-08-21T01:15:02;21.00;99.90
9699;DHT22;10089;47.876;8.346;2023-08-21T01:17:30;21.00;99.90
9699;DHT22;10089;47.876;8.346;2023-08-21T01:19:56;21.00;99.90
9699;DHT22;10089;47.876;8.346;2023-08-21T01:22:27;21.00;99.90
9699;DHT22;10089;47.876;8.346;2023-08-21T01:24:54;21.00;99.90
9699;DHT22;10089;47.876;8.346;2023-08-21T01:27:19;21.00;99.90
9699;DHT22;10089;47.876;8.346;2023-08-21T01:29:47;21.00;99.90
9699;DHT22;10089;47.876;8.346;2023-08-21T01:32:27;20.90;99.90
9699;DHT22;10089;47.876;8.346;2023-08-21T01:34:55;20.90;99.90
9699;DHT22;10089;47.876;8.346;2023-08-21T01:37:22;20.90;99.90
9699;DHT22;10089;47.876;8.346;2023-08-21T01:39:48;20.90;99.90
9699;DHT22;10089;47.876;8.346;2023-08-21T01:42:14;20.80;99.90
9699;DHT22;10089;47.876;8.346;2023-08-21T01:44:40;20.80;99.90
9699;DHT22;10089;47.876;8.346;2023-08-21T01:47:06;20.70;99.90
9699;DHT22;10089;47.876;8.346;2023-08-21T01:49:31;20.70;99.90
9699;DHT22;10089;47.876;8.346;2023-08-21T01:51:57;20.70;99.90
9699;DHT22;10089;47.876;8.346;2023-08-21T01:54:23;20.70;99.90
9699;DHT22;10089;47.876;8.346;2023-08-21T01:56:48;20.70;99.90
9699;DHT22;10089;47.876;8.346;2023-08-21T01:59:16;20.70;99.90
9699;DHT22;10089;47.876;8.346;2023-08-21T02:01:42;20.70;99.90
9699;DHT22;10089;47.876;8.346;2023-08-21T02:04:08;20.70;99.90
9699;DHT22;10089;47.876;8.346;2023-08-21T02:06:33;20.70;99.90
9699;DHT22;10089;47.876;8.346;2023-08-21T02:08:59;20.60;99.90
9699;DHT22;10089;47.876;8.346;2023-08-21T02:11:24;20.70;99.90
9699;DHT22;10089;47.876;8.346;2023-08-21T02:13:50;20.70;99.90
9699;DHT22;10089;47.876;8.346;2023-08-21T02:16:16;20.70;99.90
9699;DHT22;10089;47.876;8.346;2023-08-21T02:18:41;20.70;99.90
9699;DHT22;10089;47.876;8.346;2023-08-21T02:21:07;20.60;99.90
9699;DHT22;10089;47.876;8.346;2023-08-21T02:23:32;20.60;99.90
9699;DHT22;10089;47.876;8.346;2023-08-21T02:25:58;20.50;99.90
9699;DHT22;10089;47.876;8.346;2023-08-21T02:28:24;20.50;99.90
9699;DHT22;10089;47.876;8.346;2023-08-21T02:30:50;20.50;99.90
9699;DHT22;10089;47.876;8.346;2023-08-21T02:33:15;20.60;99.90
9699;DHT22;10089;47.876;8.346;2023-08-21T02:35:41;20.60;99.90
9699;DHT22;10089;47.876;8.346;2023-08-21T02:38:07;20.50;99.90
9699;DHT22;10089;47.876;8.346;2023-08-21T02:40:32;20.50;99.90
9699;DHT22;10089;47.876;8.346;2023-08-21T02:42:58;20.40;99.90
9699;DHT22;10089;47.876;8.346;2023-08-21T02:45:23;20.40;99.90
9699;DHT22;10089;47.876;8.346;2023-08-21T02:47:49;20.50;99.90
9699;DHT22;10089;47.876;8.346;2023-08-21T02:50:15;20.50;99.90
9699;DHT22;10089;47.876;8.346;2023-08-21T02:52:40;20.50;99.90
9699;DHT22;10089;47.876;8.346;2023-08-21T02:55:06;20.40;99.90
9699;DHT22;10089;47.876;8.346;2023-08-21T02:57:32;20.40;99.90
9699;DHT22;10089;47.876;8.346;2023-08-21T02:59:58;20.40;99.90
9699;DHT22;10089;47.876;8.346;2023-08-21T03:02:23;20.30;99.90
9699;DHT22;10089;47.876;8.346;2023-08-21T03:04:49;20.30;99.90
9699;DHT22;10089;47.876;8.346;2023-08-21T03:07:15;20.10;99.90
9699;DHT22;10089;47.876;8.346;2023-08-21T03:09:41;20.20;99.90
9699;DHT22;10089;47.876;8.346;2023-08-21T03:12:08;20.20;99.90
9699;DHT22;10089;47.876;8.346;2023-08-21T03:14:34;20.20;99.90
9699;DHT22;10089;47.876;8.346;2023-08-21T03:17:00;20.20;99.90
9699;DHT22;10089;47.876;8.346;2023-08-21T03:19:25;20.10;99.90
9699;DHT22;10089;47.876;8.346;2023-08-21T03:21:51;20.10;99.90
9699;DHT22;10089;47.876;8.346;2023-08-21T03:24:17;20.10;99.90
9699;DHT22;10089;47.876;8.346;2023-08-21T03:26:43;20.10;99.90
9699;DHT22;10089;47.876;8.346;2023-08-21T03:29:09;20.00;99.90
9699;DHT22;10089;47.876;8.346;2023-08-21T03:31:35;20.00;99.90
9699;DHT22;10089;47.876;8.346;2023-08-21T03:34:00;19.90;99.90
9699;DHT22;10089;47.876;8.346;2023-08-21T03:36:26;20.00;99.90
9699;DHT22;10089;47.876;8.346;2023-08-21T03:39:02;19.90;99.90
9699;DHT22;10089;47.876;8.346;2023-08-21T03:41:29;19.90;99.90
9699;DHT22;10089;47.876;8.346;2023-08-21T03:43:55;19.90;99.90
9699;DHT22;10089;47.876;8.346;2023-08-21T03:46:20;19.90;99.90
9699;DHT22;10089;47.876;8.346;2023-08-21T03:48:46;19.90;99.90
9699;DHT22;10089;47.876;8.346;2023-08-21T03:51:12;19.90;99.90
9699;DHT22;10089;47.876;8.346;2023-08-21T03:53:37;19.90;99.90
9699;DHT22;10089;47.876;8.346;2023-08-21T03:56:03;19.90;99.90
9699;DHT22;10089;47.876;8.346;2023-08-21T03:58:29;19.80;99.90
9699;DHT22;10089;47.876;8.346;2023-08-21T04:00:55;19.90;99.90
9699;DHT22;10089;47.876;8.346;2023-08-21T04:03:21;19.90;99.90
9699;DHT22;10089;47.876;8.346;2023-08-21T04:05:47;19.80;99.90
9699;DHT22;10089;47.876;8.346;2023-08-21T04:08:13;19.80;99.90
9699;DHT22;10089;47.876;8.346;2023-08-21T04:10:38;19.80;99.90
9699;DHT22;10089;47.876;8.346;2023-08-21T04:13:05;19.80;99.90
9699;DHT22;10089;47.876;8.346;2023-08-21T04:15:31;19.80;99.90
9699;DHT22;10089;47.876;8.346;2023-08-21T04:17:56;19.80;99.90
9699;DHT22;10089;47.876;8.346;2023-08-21T04:20:22;19.90;99.90
9699;DHT22;10089;47.876;8.346;2023-08-21T04:22:49;19.90;99.90
9699;DHT22;10089;47.876;8.346;2023-08-21T04:25:15;19.80;99.90
9699;DHT22;10089;47.876;8.346;2023-08-21T04:27:41;19.80;99.90
9699;DHT22;10089;47.876;8.346;2023-08-21T04:30:07;19.80;99.90
9699;DHT22;10089;47.876;8.346;2023-08-21T04:32:33;19.80;99.90
9699;DHT22;10089;47.876;8.346;2023-08-21T04:34:59;19.80;99.90
9699;DHT22;10089;47.876;8.346;2023-08-21T04:37:24;19.80;99.90
9699;DHT22;10089;47.876;8.346;2023-08-21T04:39:53;19.80;99.90
9699;DHT22;10089;47.876;8.346;2023-08-21T04:42:21;19.80;99.90
9699;DHT22;10089;47.876;8.346;2023-08-21T04:44:46;19.80;99.90
9699;DHT22;10089;47.876;8.346;2023-08-21T04:47:19;19.80;99.90
9699;DHT22;10089;47.876;8.346;2023-08-21T04:49:46;19.90;99.90
9699;DHT22;10089;47.876;8.346;2023-08-21T04:52:11;19.90;99.90
9699;DHT22;10089;47.876;8.346;2023-08-21T04:54:37;19.90;99.90
9699;DHT22;10089;47.876;8.346;2023-08-21T04:57:02;20.00;99.90
9699;DHT22;10089;47.876;8.346;2023-08-21T04:59:28;20.00;99.90
9699;DHT22;10089;47.876;8.346;2023-08-21T05:01:54;20.10;99.90
9699;DHT22;10089;47.876;8.346;2023-08-21T05:04:19;20.10;99.90
9699;DHT22;10089;47.876;8.346;2023-08-21T05:06:45;20.10;99.90
9699;DHT22;10089;47.876;8.346;2023-08-21T05:09:11;20.10;99.90
9699;DHT22;10089;47.876;8.346;2023-08-21T05:11:36;20.10;99.90
9699;DHT22;10089;47.876;8.346;2023-08-21T05:14:02;20.10;99.90
9699;DHT22;10089;47.876;8.346;2023-08-21T05:16:28;20.20;99.90
9699;DHT22;10089;47.876;8.346;2023-08-21T05:18:54;20.30;99.90
9699;DHT22;10089;47.876;8.346;2023-08-21T05:21:19;20.50;99.90
9699;DHT22;10089;47.876;8.346;2023-08-21T05:26:14;20.40;99.90
9699;DHT22;10089;47.876;8.346;2023-08-21T05:28:40;20.50;99.90
9699;DHT22;10089;47.876;8.346;2023-08-21T05:31:06;20.50;99.90
9699;DHT22;10089;47.876;8.346;2023-08-21T05:33:31;20.60;99.90
9699;DHT22;10089;47.876;8.346;2023-08-21T05:35:57;20.60;99.90
9699;DHT22;10089;47.876;8.346;2023-08-21T05:38:23;20.70;99.90
9699;DHT22;10089;47.876;8.346;2023-08-21T05:40:49;20.90;99.90
9699;DHT22;10089;47.876;8.346;2023-08-21T05:43:16;21.10;99.90
9699;DHT22;10089;47.876;8.346;2023-08-21T05:45:42;21.30;99.90
9699;DHT22;10089;47.876;8.346;2023-08-21T05:48:08;21.60;99.90
9699;DHT22;10089;47.876;8.346;2023-08-21T05:50:35;21.90;99.90
9699;DHT22;10089;47.876;8.346;2023-08-21T05:53:05;22.10;99.90
9699;DHT22;10089;47.876;8.346;2023-08-21T05:55:32;22.40;99.90
9699;DHT22;10089;47.876;8.346;2023-08-21T05:57:57;22.80;99.90
9699;DHT22;10089;47.876;8.346;2023-08-21T06:00:23;23.10;44.00
9699;DHT22;10089;47.876;8.346;2023-08-21T06:02:49;23.40;1.00
9699;DHT22;10089;47.876;8.346;2023-08-21T06:05:14;23.60;1.00
9699;DHT22;10089;47.876;8.346;2023-08-21T06:07:40;23.90;1.00
9699;DHT22;10089;47.876;8.346;2023-08-21T06:10:09;24.10;99.90
9699;DHT22;10089;47.876;8.346;2023-08-21T06:12:39;24.20;99.90
9699;DHT22;10089;47.876;8.346;2023-08-21T06:15:06;24.50;99.90
9699;DHT22;10089;47.876;8.346;2023-08-21T06:17:35;24.90;1.00
9699;DHT22;10089;47.876;8.346;2023-08-21T06:20:01;24.90;99.90
9699;DHT22;10089;47.876;8.346;2023-08-21T06:22:28;25.10;99.90
9699;DHT22;10089;47.876;8.346;2023-08-21T06:24:54;25.30;1.00
9699;DHT22;10089;47.876;8.346;2023-08-21T06:27:19;25.60;99.90
9699;DHT22;10089;47.876;8.346;2023-08-21T06:29:45;25.70;1.00
9699;DHT22;10089;47.876;8.346;2023-08-21T06:32:11;25.90;1.00
9699;DHT22;10089;47.876;8.346;2023-08-21T06:34:37;26.00;1.00
9699;DHT22;10089;47.876;8.346;2023-08-21T06:37:02;26.10;1.00
9699;DHT22;10089;47.876;8.346;2023-08-21T06:39:28;26.40;1.00
9699;DHT22;10089;47.876;8.346;2023-08-21T06:41:54;26.80;99.90
9699;DHT22;10089;47.876;8.346;2023-08-21T06:44:20;27.00;1.00
9699;DHT22;10089;47.876;8.346;2023-08-21T06:46:46;27.20;1.00
9699;DHT22;10089;47.876;8.346;2023-08-21T06:49:11;27.20;99.90
9699;DHT22;10089;47.876;8.346;2023-08-21T06:51:37;27.20;99.90
9699;DHT22;10089;47.876;8.346;2023-08-21T06:54:03;27.20;1.00
9699;DHT22;10089;47.876;8.346;2023-08-21T06:56:28;27.10;1.00
9699;DHT22;10089;47.876;8.346;2023-08-21T06:58:54;26.10;1.00
9699;DHT22;10089;47.876;8.346;2023-08-21T07:01:21;26.50;1.00
9699;DHT22;10089;47.876;8.346;2023-08-21T07:03:46;27.20;1.00
9699;DHT22;10089;47.876;8.346;2023-08-21T07:06:12;27.40;99.90
9699;DHT22;10089;47.876;8.346;2023-08-21T07:08:38;27.30;99.90
9699;DHT22;10089;47.876;8.346;2023-08-21T07:11:06;27.30;99.90
9699;DHT22;10089;47.876;8.346;2023-08-21T07:13:33;27.80;99.90
9699;DHT22;10089;47.876;8.346;2023-08-21T07:15:59;28.10;68.20
9699;DHT22;10089;47.876;8.346;2023-08-21T07:18:29;28.00;1.00
9699;DHT22;10089;47.876;8.346;2023-08-21T07:20:55;28.10;1.00
9699;DHT22;10089;47.876;8.346;2023-08-21T07:23:20;28.10;1.00
9699;DHT22;10089;47.876;8.346;2023-08-21T07:25:46;28.20;1.00
9699;DHT22;10089;47.876;8.346;2023-08-21T07:28:12;28.50;1.00
9699;DHT22;10089;47.876;8.346;2023-08-21T07:30:38;28.60;1.00
9699;DHT22;10089;47.876;8.346;2023-08-21T07:33:04;28.70;1.00
9699;DHT22;10089;47.876;8.346;2023-08-21T07:35:31;28.40;1.00
9699;DHT22;10089;47.876;8.346;2023-08-21T07:37:56;28.90;1.00
9699;DHT22;10089;47.876;8.346;2023-08-21T07:40:22;28.40;1.00
9699;DHT22;10089;47.876;8.346;2023-08-21T07:42:48;28.90;1.00
9699;DHT22;10089;47.876;8.346;2023-08-21T07:45:13;29.00;1.00
9699;DHT22;10089;47.876;8.346;2023-08-21T07:47:39;29.20;1.00
9699;DHT22;10089;47.876;8.346;2023-08-21T07:50:06;29.10;1.00
9699;DHT22;10089;47.876;8.346;2023-08-21T07:52:33;29.10;99.90
9699;DHT22;10089;47.876;8.346;2023-08-21T07:54:59;29.70;99.90
9699;DHT22;10089;47.876;8.346;2023-08-21T07:57:27;30.10;99.90
9699;DHT22;10089;47.876;8.346;2023-08-21T07:59:53;30.30;99.90
9699;DHT22;10089;47.876;8.346;2023-08-21T08:02:19;30.10;1.00
9699;DHT22;10089;47.876;8.346;2023-08-21T08:04:45;29.50;1.00
9699;DHT22;10089;47.876;8.346;2023-08-21T08:07:11;29.70;1.00
9699;DHT22;10089;47.876;8.346;2023-08-21T08:09:37;30.10;1.00
9699;DHT22;10089;47.876;8.346;2023-08-21T08:12:02;30.20;1.00
9699;DHT22;10089;47.876;8.346;2023-08-21T08:14:29;30.50;1.00
9699;DHT22;10089;47.876;8.346;2023-08-21T08:16:54;30.60;1.00
9699;DHT22;10089;47.876;8.346;2023-08-21T08:19:20;30.70;1.00
9699;DHT22;10089;47.876;8.346;2023-08-21T08:21:45;30.60;1.00
9699;DHT22;10089;47.876;8.346;2023-08-21T08:24:11;30.40;1.00
9699;DHT22;10089;47.876;8.346;2023-08-21T08:26:37;29.70;1.00
9699;DHT22;10089;47.876;8.346;2023-08-21T08:29:03;30.10;1.00
9699;DHT22;10089;47.876;8.346;2023-08-21T08:31:30;30.80;1.00
9699;DHT22;10089;47.876;8.346;2023-08-21T08:33:56;30.70;1.00
9699;DHT22;10089;47.876;8.346;2023-08-21T08:36:22;30.40;1.00
9699;DHT22;10089;47.876;8.346;2023-08-21T08:38:48;30.20;1.00
9699;DHT22;10089;47.876;8.346;2023-08-21T08:43:50;29.90;1.00
9699;DHT22;10089;47.876;8.346;2023-08-21T08:46:20;30.00;1.00
9699;DHT22;10089;47.876;8.346;2023-08-21T08:54:06;31.10;1.00
9699;DHT22;10089;47.876;8.346;2023-08-21T08:56:33;30.30;1.00
9699;DHT22;10089;47.876;8.346;2023-08-21T08:58:58;31.00;1.00
9699;DHT22;10089;47.876;8.346;2023-08-21T09:01:24;31.00;1.00
9699;DHT22;10089;47.876;8.346;2023-08-21T09:03:50;31.00;1.00
9699;DHT22;10089;47.876;8.346;2023-08-21T09:06:16;30.90;1.00
9699;DHT22;10089;47.876;8.346;2023-08-21T09:09:06;30.00;1.00
9699;DHT22;10089;47.876;8.346;2023-08-21T09:11:36;30.90;1.00
9699;DHT22;10089;47.876;8.346;2023-08-21T09:14:01;31.40;1.00
9699;DHT22;10089;47.876;8.346;2023-08-21T09:16:27;31.80;1.00
9699;DHT22;10089;47.876;8.346;2023-08-21T09:18:56;31.70;1.00
9699;DHT22;10089;47.876;8.346;2023-08-21T09:21:23;31.90;1.00
9699;DHT22;10089;47.876;8.346;2023-08-21T09:23:57;31.90;1.00
9699;DHT22;10089;47.876;8.346;2023-08-21T09:26:23;31.90;99.90
9699;DHT22;10089;47.876;8.346;2023-08-21T09:28:52;31.50;99.90
9699;DHT22;10089;47.876;8.346;2023-08-21T09:31:31;32.30;99.90
9699;DHT22;10089;47.876;8.346;2023-08-21T09:34:00;32.20;99.90
9699;DHT22;10089;47.876;8.346;2023-08-21T09:36:27;32.30;99.90
9699;DHT22;10089;47.876;8.346;2023-08-21T09:38:55;31.80;99.90
9699;DHT22;10089;47.876;8.346;2023-08-21T09:41:22;31.90;99.90
9699;DHT22;10089;47.876;8.346;2023-08-21T09:43:48;32.50;99.90
9699;DHT22;10089;47.876;8.346;2023-08-21T09:46:15;32.60;99.90
9699;DHT22;10089;47.876;8.346;2023-08-21T09:48:45;32.80;99.90
9699;DHT22;10089;47.876;8.346;2023-08-21T09:51:11;32.90;99.90
9699;DHT22;10089;47.876;8.346;2023-08-21T09:53:43;33.00;99.90
9699;DHT22;10089;47.876;8.346;2023-08-21T10:09:04;32.80;99.90
9699;DHT22;10089;47.876;8.346;2023-08-21T10:11:30;32.90;99.90
9699;DHT22;10089;47.876;8.346;2023-08-21T10:13:57;32.70;99.90
9699;DHT22;10089;47.876;8.346;2023-08-21T10:16:23;33.00;99.90
9699;DHT22;10089;47.876;8.346;2023-08-21T10:18:49;33.30;99.90
9699;DHT22;10089;47.876;8.346;2023-08-21T10:21:17;32.40;99.90
9699;DHT22;10089;47.876;8.346;2023-08-21T10:23:49;32.20;99.90
9699;DHT22;10089;47.876;8.346;2023-08-21T10:26:15;32.50;99.90
9699;DHT22;10089;47.876;8.346;2023-08-21T10:28:54;32.60;99.90
9699;DHT22;10089;47.876;8.346;2023-08-21T10:33:57;32.30;99.90
9699;DHT22;10089;47.876;8.346;2023-08-21T10:41:53;32.40;99.90
9699;DHT22;10089;47.876;8.346;2023-08-21T10:47:22;32.10;99.90
9699;DHT22;10089;47.876;8.346;2023-08-21T10:49:56;32.40;99.90
9699;DHT22;10089;47.876;8.346;2023-08-21T10:52:29;32.00;99.90
9699;DHT22;10089;47.876;8.346;2023-08-21T10:55:18;31.70;99.90
9699;DHT22;10089;47.876;8.346;2023-08-21T10:57:49;31.70;99.90
9699;DHT22;10089;47.876;8.346;2023-08-21T11:00:21;32.50;99.90
9699;DHT22;10089;47.876;8.346;2023-08-21T11:03:07;32.40;99.90
9699;DHT22;10089;47.876;8.346;2023-08-21T11:05:35;32.10;99.90
9699;DHT22;10089;47.876;8.346;2023-08-21T11:08:01;31.70;99.90
9699;DHT22;10089;47.876;8.346;2023-08-21T11:10:30;31.60;99.90
9699;DHT22;10089;47.876;8.346;2023-08-21T11:12:59;31.30;99.90
9699;DHT22;10089;47.876;8.346;2023-08-21T11:15:27;31.20;99.90
9699;DHT22;10089;47.876;8.346;2023-08-21T11:17:55;31.20;99.90
9699;DHT22;10089;47.876;8.346;2023-08-21T11:20:20;31.20;99.90
9699;DHT22;10089;47.876;8.346;2023-08-21T11:22:46;31.10;99.90
9699;DHT22;10089;47.876;8.346;2023-08-21T11:25:13;30.80;99.90
9699;DHT22;10089;47.876;8.346;2023-08-21T11:27:39;30.60;99.90
9699;DHT22;10089;47.876;8.346;2023-08-21T11:30:05;30.60;99.90
9699;DHT22;10089;47.876;8.346;2023-08-21T11:32:31;30.60;99.90
9699;DHT22;10089;47.876;8.346;2023-08-21T11:35:02;28.70;99.90
9699;DHT22;10089;47.876;8.346;2023-08-21T11:37:28;30.30;99.90
9699;DHT22;10089;47.876;8.346;2023-08-21T11:39:58;30.30;99.90
9699;DHT22;10089;47.876;8.346;2023-08-21T11:42:34;30.30;99.90
9699;DHT22;10089;47.876;8.346;2023-08-21T11:45:03;30.20;99.90
9699;DHT22;10089;47.876;8.346;2023-08-21T11:47:58;30.40;99.90
9699;DHT22;10089;47.876;8.346;2023-08-21T11:50:35;30.50;99.90
9699;DHT22;10089;47.876;8.346;2023-08-21T11:53:03;31.10;99.90
9699;DHT22;10089;47.876;8.346;2023-08-21T11:55:31;30.80;99.90
9699;DHT22;10089;47.876;8.346;2023-08-21T11:57:57;30.70;99.90
9699;DHT22;10089;47.876;8.346;2023-08-21T12:00:29;30.40;99.90
9699;DHT22;10089;47.876;8.346;2023-08-21T12:03:00;31.20;99.90
9699;DHT22;10089;47.876;8.346;2023-08-21T12:05:27;30.20;99.90
9699;DHT22;10089;47.876;8.346;2023-08-21T12:07:54;30.20;99.90
9699;DHT22;10089;47.876;8.346;2023-08-21T12:10:29;29.10;99.90
9699;DHT22;10089;47.876;8.346;2023-08-21T12:12:58;29.90;99.90
9699;DHT22;10089;47.876;8.346;2023-08-21T12:15:24;29.90;99.90
9699;DHT22;10089;47.876;8.346;2023-08-21T12:17:49;29.50;99.90
9699;DHT22;10089;47.876;8.346;2023-08-21T12:20:18;29.50;99.90
9699;DHT22;10089;47.876;8.346;2023-08-21T12:22:44;29.50;99.90
9699;DHT22;10089;47.876;8.346;2023-08-21T12:25:09;29.60;99.90
9699;DHT22;10089;47.876;8.346;2023-08-21T12:27:36;29.60;99.90
9699;DHT22;10089;47.876;8.346;2023-08-21T12:30:02;29.60;99.90
9699;DHT22;10089;47.876;8.346;2023-08-21T12:32:28;29.70;99.90
9699;DHT22;10089;47.876;8.346;2023-08-21T12:34:53;29.60;99.90
9699;DHT22;10089;47.876;8.346;2023-08-21T12:37:19;29.30;99.90
9699;DHT22;10089;47.876;8.346;2023-08-21T12:39:45;29.10;99.90
9699;DHT22;10089;47.876;8.346;2023-08-21T12:42:11;29.30;99.90
9699;DHT22;10089;47.876;8.346;2023-08-21T12:44:37;29.30;99.90
9699;DHT22;10089;47.876;8.346;2023-08-21T12:47:02;29.40;99.90
9699;DHT22;10089;47.876;8.346;2023-08-21T12:49:28;29.40;99.90
9699;DHT22;10089;47.876;8.346;2023-08-21T12:51:54;29.40;99.90
9699;DHT22;10089;47.876;8.346;2023-08-21T12:54:21;29.60;99.90
9699;DHT22;10089;47.876;8.346;2023-08-21T12:56:46;28.00;99.90
9699;DHT22;10089;47.876;8.346;2023-08-21T12:59:13;30.40;99.90
9699;DHT22;10089;47.876;8.346;2023-08-21T13:01:39;30.80;99.90
9699;DHT22;10089;47.876;8.346;2023-08-21T13:04:04;31.30;99.90
9699;DHT22;10089;47.876;8.346;2023-08-21T13:06:30;31.60;99.90
9699;DHT22;10089;47.876;8.346;2023-08-21T13:08:56;31.60;99.90
9699;DHT22;10089;47.876;8.346;2023-08-21T13:11:22;31.90;99.90
9699;DHT22;10089;47.876;8.346;2023-08-21T13:13:47;32.00;99.90
9699;DHT22;10089;47.876;8.346;2023-08-21T13:16:14;31.40;99.90
9699;DHT22;10089;47.876;8.346;2023-08-21T13:26:23;31.30;99.90
9699;DHT22;10089;47.876;8.346;2023-08-21T13:28:51;31.10;99.90
9699;DHT22;10089;47.876;8.346;2023-08-21T13:31:17;30.90;99.90
9699;DHT22;10089;47.876;8.346;2023-08-21T13:33:50;30.90;99.90
9699;DHT22;10089;47.876;8.346;2023-08-21T13:36:16;30.60;99.90
9699;DHT22;10089;47.876;8.346;2023-08-21T13:38:42;30.50;99.90
9699;DHT22;10089;47.876;8.346;2023-08-21T13:41:08;30.60;99.90
9699;DHT22;10089;47.876;8.346;2023-08-21T13:43:35;30.60;99.90
9699;DHT22;10089;47.876;8.346;2023-08-21T13:46:01;30.90;99.90
9699;DHT22;10089;47.876;8.346;2023-08-21T13:48:29;31.20;99.90
9699;DHT22;10089;47.876;8.346;2023-08-21T13:50:56;31.50;99.90
9699;DHT22;10089;47.876;8.346;2023-08-21T13:53:21;31.60;99.90
9699;DHT22;10089;47.876;8.346;2023-08-21T13:55:47;31.60;99.90
9699;DHT22;10089;47.876;8.346;2023-08-21T13:58:13;31.30;99.90
9699;DHT22;10089;47.876;8.346;2023-08-21T14:00:39;31.20;99.90
9699;DHT22;10089;47.876;8.346;2023-08-21T14:03:04;30.80;99.90
9699;DHT22;10089;47.876;8.346;2023-08-21T14:05:30;31.20;99.90
9699;DHT22;10089;47.876;8.346;2023-08-21T14:07:57;31.40;99.90
9699;DHT22;10089;47.876;8.346;2023-08-21T14:10:23;31.60;99.90
9699;DHT22;10089;47.876;8.346;2023-08-21T14:12:48;31.10;99.90
9699;DHT22;10089;47.876;8.346;2023-08-21T14:15:14;31.20;99.90
9699;DHT22;10089;47.876;8.346;2023-08-21T14:17:40;30.80;99.90
9699;DHT22;10089;47.876;8.346;2023-08-21T14:20:06;31.10;99.90
9699;DHT22;10089;47.876;8.346;2023-08-21T14:22:33;31.20;99.90
9699;DHT22;10089;47.876;8.346;2023-08-21T14:24:58;31.20;99.90
9699;DHT22;10089;47.876;8.346;2023-08-21T14:27:24;31.20;99.90
9699;DHT22;10089;47.876;8.346;2023-08-21T14:29:50;31.20;99.90
9699;DHT22;10089;47.876;8.346;2023-08-21T14:32:16;31.10;99.90
9699;DHT22;10089;47.876;8.346;2023-08-21T14:34:41;30.90;99.90
9699;DHT22;10089;47.876;8.346;2023-08-21T14:37:07;31.00;99.90
9699;DHT22;10089;47.876;8.346;2023-08-21T14:39:33;31.00;99.90
9699;DHT22;10089;47.876;8.346;2023-08-21T14:41:59;30.70;99.90
9699;DHT22;10089;47.876;8.346;2023-08-21T14:44:26;30.60;99.90
9699;DHT22;10089;47.876;8.346;2023-08-21T14:46:53;30.40;99.90
9699;DHT22;10089;47.876;8.346;2023-08-21T14:49:20;30.20;99.90
9699;DHT22;10089;47.876;8.346;2023-08-21T14:51:45;29.90;99.90
9699;DHT22;10089;47.876;8.346;2023-08-21T14:54:11;29.70;99.90
9699;DHT22;10089;47.876;8.346;2023-08-21T14:56:37;29.50;99.90
9699;DHT22;10089;47.876;8.346;2023-08-21T14:59:02;29.40;99.90
9699;DHT22;10089;47.876;8.346;2023-08-21T15:01:29;29.30;99.90
9699;DHT22;10089;47.876;8.346;2023-08-21T15:03:55;29.30;99.90
9699;DHT22;10089;47.876;8.346;2023-08-21T15:06:22;29.30;99.90
9699;DHT22;10089;47.876;8.346;2023-08-21T15:08:47;29.40;99.90
9699;DHT22;10089;47.876;8.346;2023-08-21T15:11:13;29.40;99.90
9699;DHT22;10089;47.876;8.346;2023-08-21T15:13:39;29.40;99.90
9699;DHT22;10089;47.876;8.346;2023-08-21T15:16:06;29.40;99.90
9699;DHT22;10089;47.876;8.346;2023-08-21T15:18:32;29.40;99.90
9699;DHT22;10089;47.876;8.346;2023-08-21T15:20:58;29.40;99.90
9699;DHT22;10089;47.876;8.346;2023-08-21T15:23:23;29.30;99.90
9699;DHT22;10089;47.876;8.346;2023-08-21T15:25:51;29.20;99.90
9699;DHT22;10089;47.876;8.346;2023-08-21T15:28:16;29.10;99.90
9699;DHT22;10089;47.876;8.346;2023-08-21T15:30:42;29.10;99.90
9699;DHT22;10089;47.876;8.346;2023-08-21T15:33:08;29.00;99.90
9699;DHT22;10089;47.876;8.346;2023-08-21T15:35:33;29.00;99.90
9699;DHT22;10089;47.876;8.346;2023-08-21T15:37:59;29.00;99.90
9699;DHT22;10089;47.876;8.346;2023-08-21T15:40:24;29.00;99.90
9699;DHT22;10089;47.876;8.346;2023-08-21T15:42:50;29.00;99.90
9699;DHT22;10089;47.876;8.346;2023-08-21T15:45:16;29.00;99.90
9699;DHT22;10089;47.876;8.346;2023-08-21T15:47:41;29.00;99.90
9699;DHT22;10089;47.876;8.346;2023-08-21T15:50:07;28.90;99.90
9699;DHT22;10089;47.876;8.346;2023-08-21T15:52:33;29.00;99.90
9699;DHT22;10089;47.876;8.346;2023-08-21T15:54:59;29.00;99.90
9699;DHT22;10089;47.876;8.346;2023-08-21T15:57:24;29.00;99.90
9699;DHT22;10089;47.876;8.346;2023-08-21T15:59:50;29.10;99.90
9699;DHT22;10089;47.876;8.346;2023-08-21T16:02:16;29.00;99.90
9699;DHT22;10089;47.876;8.346;2023-08-21T16:04:41;29.10;99.90
9699;DHT22;10089;47.876;8.346;2023-08-21T16:07:09;29.20;99.90
9699;DHT22;10089;47.876;8.346;2023-08-21T16:09:34;29.20;99.90
9699;DHT22;10089;47.876;8.346;2023-08-21T16:12:00;29.30;99.90
9699;DHT22;10089;47.876;8.346;2023-08-21T16:14:28;29.30;99.90
9699;DHT22;10089;47.876;8.346;2023-08-21T16:16:54;29.40;99.90
9699;DHT22;10089;47.876;8.346;2023-08-21T16:19:22;29.30;99.90
9699;DHT22;10089;47.876;8.346;2023-08-21T16:21:48;29.40;99.90
9699;DHT22;10089;47.876;8.346;2023-08-21T16:24:15;29.40;99.90
9699;DHT22;10089;47.876;8.346;2023-08-21T16:26:41;29.40;99.90